ZBAA/PEK METAR and TAF weather

Enter ICAO airport designator
Station Type Date Time Source
ZBAA METAR 2021/05/15 01:00 UTC NOAA

ZBAA 150100Z 35004MPS 2900 BR NSC 19/15 Q1009 BECMG TL0130 3500


Station Type Date Time Source
ZBAA Decoded METAR 2021/05/15 01:00 UTC NOAA

Beijing, China (ZBAA) 39-56N 116-17E 55M
May 14, 2021 - 09:00 PM EDT / 2021.05.15 0100 UTC
Wind: from the N (350 degrees) at 9 MPH (8 KT):0
Visibility: 1 mile(s):0
Weather: mist
Temperature: 66 F (19 C)
Dew Point: 59 F (15 C)
Relative Humidity: 77%
Pressure (altimeter): 29.80 in. Hg (1009 hPa)
ob: ZBAA 150100Z 35004MPS 2900 BR NSC 19/15 Q1009 BECMG TL0130 3500
cycle: 1

Station Type Date Time Source
ZBAA TAF 2021/05/14 18:03 UTC NOAA

TAF TAF ZBAA 141504Z 1418/1518 10004MPS 4000 BR NSC TX21/1507Z TN15/1421Z
BECMG 1420/1421 2800 -RA
BECMG 1505/1506 01006MPS 5000 BR

Example: see airport list